VQBOS LCLK-LLBG
Flight info
| Callsign | VQBOS |
|---|---|
| Flight time | 0h 53m |
| Altitude | 25000 |
| Route | N0460F250 IDAKU Z89 PIKOG L609 ZUKKO |
| Aircraft | B738/M-Q/L |
Departure
| Time | 2026-05-06 06:20 |
|---|---|
| Airport | Larnaca International Airport (LCLK) |
Arrival
| Time | 2026-05-06 07:14 |
|---|---|
| Airport | Ben Gurion International Airport (LLBG) |
| Time | Latitude | Longitude | Altitude | Speed | Heading |
|---|---|---|---|---|---|
| 2026-05-06 05:56 | 34.86629 | 33.60852 | 19 ft | 0 kts | 226° |
| 2026-05-06 06:15 | 34.86630 | 33.60853 | 20 ft | 2 kts | 226° |
| 2026-05-06 06:16 | 34.86641 | 33.60868 | 21 ft | 2 kts | 227° |
| 2026-05-06 06:16 | 34.86652 | 33.60883 | 22 ft | 2 kts | 228° |
| 2026-05-06 06:16 | 34.86663 | 33.60898 | 20 ft | 2 kts | 228° |
| 2026-05-06 06:16 | 34.86677 | 33.60908 | 24 ft | 2 kts | 162° |
| 2026-05-06 06:17 | 34.86691 | 33.60898 | 20 ft | 2 kts | 137° |
| 2026-05-06 06:17 | 34.86694 | 33.60894 | 20 ft | 0 kts | 135° |
| 2026-05-06 06:18 | 34.86693 | 33.60896 | 20 ft | 2 kts | 136° |
| 2026-05-06 06:18 | 34.86661 | 33.60936 | 20 ft | 10 kts | 134° |
| 2026-05-06 06:18 | 34.86652 | 33.61018 | 20 ft | 10 kts | 86° |
| 2026-05-06 06:18 | 34.86607 | 33.61067 | 20 ft | 10 kts | 195° |
| 2026-05-06 06:19 | 34.86544 | 33.61031 | 20 ft | 12 kts | 194° |
| 2026-05-06 06:19 | 34.86481 | 33.61097 | 20 ft | 14 kts | 94° |
| 2026-05-06 06:19 | 34.86497 | 33.61211 | 21 ft | 13 kts | 75° |
| 2026-05-06 06:19 | 34.86520 | 33.61318 | 22 ft | 13 kts | 75° |
| 2026-05-06 06:20 | 34.86570 | 33.61411 | 20 ft | 20 kts | 46° |
| 2026-05-06 06:20 | 34.86907 | 33.61826 | 21 ft | 116 kts | 45° |
| 2026-05-06 06:20 | 34.87671 | 33.62755 | 102 ft | 186 kts | 47° |
| 2026-05-06 06:20 | 34.88642 | 33.63947 | 619 ft | 209 kts | 46° |
| 2026-05-06 06:21 | 34.89717 | 33.65119 | 1328 ft | 213 kts | 39° |
| 2026-05-06 06:21 | 34.90915 | 33.66231 | 2049 ft | 214 kts | 39° |
| 2026-05-06 06:21 | 34.92106 | 33.67409 | 2592 ft | 228 kts | 28° |
| 2026-05-06 06:21 | 34.93660 | 33.67663 | 3227 ft | 233 kts | 346° |
| 2026-05-06 06:22 | 34.94989 | 33.66600 | 3982 ft | 232 kts | 304° |
| 2026-05-06 06:22 | 34.95496 | 33.64761 | 4764 ft | 232 kts | 274° |
| 2026-05-06 06:22 | 34.95573 | 33.62778 | 5591 ft | 235 kts | 270° |
| 2026-05-06 06:22 | 34.95594 | 33.60799 | 6604 ft | 233 kts | 270° |
| 2026-05-06 06:23 | 34.95614 | 33.58805 | 7476 ft | 237 kts | 271° |
| 2026-05-06 06:23 | 34.95642 | 33.56787 | 8405 ft | 238 kts | 271° |
| 2026-05-06 06:23 | 34.95676 | 33.54759 | 9332 ft | 240 kts | 271° |
| 2026-05-06 06:23 | 34.95716 | 33.52713 | 10223 ft | 243 kts | 272° |
| 2026-05-06 06:24 | 34.95761 | 33.50647 | 11069 ft | 244 kts | 272° |
| 2026-05-06 06:24 | 34.95810 | 33.48575 | 11955 ft | 245 kts | 272° |
| 2026-05-06 06:24 | 34.95858 | 33.46491 | 12893 ft | 246 kts | 271° |
| 2026-05-06 06:24 | 34.95908 | 33.44386 | 13797 ft | 250 kts | 272° |
| 2026-05-06 06:25 | 34.95959 | 33.42254 | 14662 ft | 251 kts | 272° |
| 2026-05-06 06:25 | 34.96010 | 33.40148 | 15549 ft | 252 kts | 272° |
| 2026-05-06 06:25 | 34.96114 | 33.35838 | 17269 ft | 257 kts | 272° |
| 2026-05-06 06:26 | 34.96146 | 33.33643 | 18136 ft | 260 kts | 267° |
| 2026-05-06 06:26 | 34.95660 | 33.31493 | 18830 ft | 271 kts | 248° |
| 2026-05-06 06:26 | 34.94559 | 33.29480 | 19033 ft | 300 kts | 234° |
| 2026-05-06 06:26 | 34.93132 | 33.27469 | 19204 ft | 326 kts | 232° |
| 2026-05-06 06:27 | 34.91568 | 33.25338 | 19357 ft | 349 kts | 232° |
| 2026-05-06 06:27 | 34.89899 | 33.23063 | 19500 ft | 370 kts | 232° |
| 2026-05-06 06:27 | 34.88158 | 33.20670 | 19847 ft | 383 kts | 232° |
| 2026-05-06 06:27 | 34.86411 | 33.18252 | 20517 ft | 385 kts | 232° |
| 2026-05-06 06:28 | 34.84646 | 33.15794 | 21261 ft | 386 kts | 233° |
| 2026-05-06 06:28 | 34.82873 | 33.13315 | 21912 ft | 390 kts | 233° |
| 2026-05-06 06:28 | 34.81080 | 33.10809 | 22534 ft | 394 kts | 232° |
| 2026-05-06 06:28 | 34.79041 | 33.08529 | 23115 ft | 406 kts | 218° |
| 2026-05-06 06:29 | 34.76504 | 33.06914 | 23731 ft | 414 kts | 210° |
| 2026-05-06 06:29 | 34.73858 | 33.05467 | 24233 ft | 418 kts | 209° |
| 2026-05-06 06:29 | 34.71176 | 33.04038 | 24690 ft | 422 kts | 209° |
| 2026-05-06 06:29 | 34.68504 | 33.02616 | 25029 ft | 426 kts | 209° |
| 2026-05-06 06:30 | 34.65765 | 33.01143 | 25041 ft | 436 kts | 209° |
| 2026-05-06 06:30 | 34.62958 | 32.99619 | 25053 ft | 446 kts | 209° |
| 2026-05-06 06:30 | 34.60099 | 32.98056 | 25058 ft | 455 kts | 209° |
| 2026-05-06 06:30 | 34.57178 | 32.96456 | 25056 ft | 462 kts | 210° |
| 2026-05-06 06:31 | 34.54233 | 32.94843 | 25044 ft | 465 kts | 210° |
| 2026-05-06 06:31 | 34.51278 | 32.93258 | 25034 ft | 464 kts | 207° |
| 2026-05-06 06:31 | 34.48168 | 32.92126 | 25047 ft | 470 kts | 197° |
| 2026-05-06 06:31 | 34.44904 | 32.91586 | 25042 ft | 477 kts | 188° |
| 2026-05-06 06:32 | 34.41618 | 32.91475 | 25053 ft | 478 kts | 186° |
| 2026-05-06 06:32 | 34.38291 | 32.91407 | 25047 ft | 478 kts | 186° |
| 2026-05-06 06:32 | 34.34951 | 32.91341 | 25050 ft | 479 kts | 186° |
| 2026-05-06 06:32 | 34.31617 | 32.91264 | 25056 ft | 479 kts | 187° |
| 2026-05-06 06:33 | 34.28274 | 32.91172 | 25057 ft | 479 kts | 187° |
| 2026-05-06 06:33 | 34.24977 | 32.91069 | 25058 ft | 480 kts | 187° |
| 2026-05-06 06:33 | 34.21636 | 32.90958 | 25058 ft | 480 kts | 187° |
| 2026-05-06 06:33 | 34.18287 | 32.90843 | 25066 ft | 481 kts | 187° |
| 2026-05-06 06:34 | 34.14940 | 32.90727 | 25065 ft | 481 kts | 187° |
| 2026-05-06 06:34 | 34.11591 | 32.90610 | 25067 ft | 482 kts | 187° |
| 2026-05-06 06:34 | 34.08234 | 32.90494 | 25060 ft | 482 kts | 187° |
| 2026-05-06 06:34 | 34.04879 | 32.90379 | 25069 ft | 483 kts | 187° |
| 2026-05-06 06:35 | 34.01520 | 32.90265 | 25074 ft | 483 kts | 187° |
| 2026-05-06 06:35 | 33.98161 | 32.90150 | 25076 ft | 483 kts | 187° |
| 2026-05-06 06:35 | 33.94791 | 32.90036 | 25078 ft | 483 kts | 187° |
| 2026-05-06 06:35 | 33.91426 | 32.89922 | 25073 ft | 483 kts | 187° |
| 2026-05-06 06:36 | 33.88050 | 32.89807 | 25073 ft | 484 kts | 187° |
| 2026-05-06 06:36 | 33.84684 | 32.89693 | 25075 ft | 484 kts | 187° |
| 2026-05-06 06:36 | 33.81317 | 32.89579 | 25075 ft | 484 kts | 188° |
| 2026-05-06 06:36 | 33.77994 | 32.89466 | 25078 ft | 483 kts | 188° |
| 2026-05-06 06:37 | 33.74629 | 32.89353 | 25078 ft | 483 kts | 187° |
| 2026-05-06 06:37 | 33.71266 | 32.89239 | 25082 ft | 483 kts | 187° |
| 2026-05-06 06:37 | 33.67904 | 32.89125 | 25080 ft | 483 kts | 188° |
| 2026-05-06 06:37 | 33.64538 | 32.89011 | 25076 ft | 483 kts | 188° |
| 2026-05-06 06:38 | 33.61182 | 32.88898 | 25079 ft | 483 kts | 188° |
| 2026-05-06 06:38 | 33.57824 | 32.88785 | 25080 ft | 482 kts | 188° |
| 2026-05-06 06:38 | 33.54471 | 32.88672 | 25081 ft | 482 kts | 187° |
| 2026-05-06 06:38 | 33.51115 | 32.88559 | 25077 ft | 482 kts | 187° |
| 2026-05-06 06:39 | 33.47761 | 32.88446 | 25079 ft | 482 kts | 187° |
| 2026-05-06 06:39 | 33.45542 | 32.88371 | 25077 ft | 482 kts | 187° |
| 2026-05-06 06:39 | 33.41093 | 32.88222 | 25081 ft | 481 kts | 187° |
| 2026-05-06 06:39 | 33.37742 | 32.88109 | 25079 ft | 481 kts | 187° |
| 2026-05-06 06:40 | 33.34397 | 32.87997 | 25083 ft | 481 kts | 187° |
| 2026-05-06 06:40 | 33.32134 | 32.87921 | 25083 ft | 481 kts | 187° |
| 2026-05-06 06:40 | 33.27703 | 32.87772 | 25083 ft | 481 kts | 187° |
| 2026-05-06 06:40 | 33.25444 | 32.87697 | 25085 ft | 481 kts | 187° |
| 2026-05-06 06:41 | 33.22099 | 32.87585 | 25084 ft | 481 kts | 187° |
| 2026-05-06 06:41 | 33.18746 | 32.87472 | 25086 ft | 481 kts | 187° |
| 2026-05-06 06:41 | 33.15459 | 32.87581 | 25042 ft | 476 kts | 176° |
| 2026-05-06 06:41 | 33.12346 | 32.88774 | 25023 ft | 467 kts | 158° |
| 2026-05-06 06:42 | 33.09656 | 32.90904 | 24852 ft | 466 kts | 143° |
| 2026-05-06 06:42 | 33.07449 | 32.93705 | 24605 ft | 461 kts | 128° |
| 2026-05-06 06:42 | 33.05900 | 32.97023 | 24376 ft | 453 kts | 115° |
| 2026-05-06 06:42 | 33.04668 | 33.00440 | 24153 ft | 444 kts | 113° |
| 2026-05-06 06:43 | 33.03513 | 33.03818 | 23917 ft | 436 kts | 113° |
| 2026-05-06 06:43 | 33.02383 | 33.07141 | 23686 ft | 431 kts | 113° |
| 2026-05-06 06:43 | 33.01232 | 33.10479 | 23440 ft | 437 kts | 113° |
| 2026-05-06 06:43 | 33.00054 | 33.13841 | 23179 ft | 440 kts | 114° |
| 2026-05-06 06:44 | 32.98883 | 33.17146 | 22902 ft | 437 kts | 114° |
| 2026-05-06 06:44 | 32.97699 | 33.20458 | 22639 ft | 432 kts | 114° |
| 2026-05-06 06:44 | 32.96528 | 33.23722 | 22318 ft | 425 kts | 114° |
| 2026-05-06 06:44 | 32.95369 | 33.26943 | 22002 ft | 420 kts | 114° |
| 2026-05-06 06:45 | 32.94219 | 33.30137 | 21695 ft | 418 kts | 114° |
| 2026-05-06 06:45 | 32.93074 | 33.33313 | 21390 ft | 416 kts | 114° |
| 2026-05-06 06:45 | 32.91932 | 33.36482 | 21087 ft | 414 kts | 114° |
| 2026-05-06 06:45 | 32.90797 | 33.39629 | 20793 ft | 413 kts | 114° |
| 2026-05-06 06:46 | 32.89666 | 33.42761 | 20497 ft | 411 kts | 114° |
| 2026-05-06 06:46 | 32.88555 | 33.45837 | 20208 ft | 409 kts | 114° |
| 2026-05-06 06:46 | 32.87430 | 33.48947 | 19917 ft | 408 kts | 114° |
| 2026-05-06 06:46 | 32.86308 | 33.52048 | 19628 ft | 406 kts | 114° |
| 2026-05-06 06:47 | 32.85189 | 33.55139 | 19340 ft | 404 kts | 114° |
| 2026-05-06 06:47 | 32.84077 | 33.58203 | 19065 ft | 402 kts | 114° |
| 2026-05-06 06:47 | 32.82903 | 33.61206 | 18779 ft | 400 kts | 121° |
| 2026-05-06 06:47 | 32.81381 | 33.63942 | 18501 ft | 395 kts | 132° |
| 2026-05-06 06:48 | 32.79565 | 33.66303 | 18211 ft | 390 kts | 137° |
| 2026-05-06 06:48 | 32.77675 | 33.68600 | 17894 ft | 388 kts | 138° |
| 2026-05-06 06:48 | 32.75792 | 33.70869 | 17630 ft | 384 kts | 138° |
| 2026-05-06 06:48 | 32.73925 | 33.73127 | 17371 ft | 381 kts | 137° |
| 2026-05-06 06:49 | 32.72079 | 33.75377 | 17110 ft | 379 kts | 137° |
| 2026-05-06 06:49 | 32.70253 | 33.77614 | 16852 ft | 376 kts | 137° |
| 2026-05-06 06:49 | 32.68438 | 33.79844 | 16596 ft | 374 kts | 137° |
| 2026-05-06 06:49 | 32.66636 | 33.82060 | 16345 ft | 372 kts | 137° |
| 2026-05-06 06:50 | 32.64843 | 33.84264 | 16095 ft | 371 kts | 137° |
| 2026-05-06 06:50 | 32.63057 | 33.86461 | 15849 ft | 369 kts | 137° |
| 2026-05-06 06:50 | 32.61277 | 33.88648 | 15620 ft | 367 kts | 137° |
| 2026-05-06 06:50 | 32.59507 | 33.90819 | 15401 ft | 365 kts | 137° |
| 2026-05-06 06:51 | 32.57747 | 33.92981 | 15177 ft | 363 kts | 136° |
| 2026-05-06 06:51 | 32.56169 | 33.95334 | 14953 ft | 365 kts | 125° |
| 2026-05-06 06:51 | 32.54984 | 33.97997 | 14743 ft | 366 kts | 115° |
| 2026-05-06 06:51 | 32.53991 | 34.00762 | 14530 ft | 364 kts | 114° |
| 2026-05-06 06:52 | 32.53020 | 34.03531 | 14326 ft | 363 kts | 114° |
| 2026-05-06 06:52 | 32.52055 | 34.06288 | 14109 ft | 362 kts | 114° |
| 2026-05-06 06:52 | 32.51098 | 34.09006 | 13902 ft | 361 kts | 114° |
| 2026-05-06 06:52 | 32.50127 | 34.11746 | 13669 ft | 359 kts | 115° |
| 2026-05-06 06:53 | 32.49157 | 34.14470 | 13427 ft | 358 kts | 115° |
| 2026-05-06 06:53 | 32.48192 | 34.17167 | 13186 ft | 353 kts | 115° |
| 2026-05-06 06:53 | 32.47245 | 34.19812 | 12944 ft | 344 kts | 115° |
| 2026-05-06 06:53 | 32.46319 | 34.22389 | 12701 ft | 336 kts | 115° |
| 2026-05-06 06:54 | 32.45413 | 34.24911 | 12469 ft | 329 kts | 115° |
| 2026-05-06 06:54 | 32.44524 | 34.27378 | 12230 ft | 323 kts | 115° |
| 2026-05-06 06:54 | 32.43649 | 34.29805 | 12001 ft | 317 kts | 115° |
| 2026-05-06 06:54 | 32.42793 | 34.32180 | 11779 ft | 311 kts | 115° |
| 2026-05-06 06:55 | 32.41946 | 34.34526 | 11552 ft | 307 kts | 115° |
| 2026-05-06 06:55 | 32.41114 | 34.36829 | 11326 ft | 302 kts | 115° |
| 2026-05-06 06:55 | 32.40304 | 34.39070 | 11110 ft | 298 kts | 115° |
| 2026-05-06 06:55 | 32.39495 | 34.41305 | 10881 ft | 293 kts | 115° |
| 2026-05-06 06:56 | 32.38695 | 34.43516 | 10664 ft | 290 kts | 115° |
| 2026-05-06 06:56 | 32.37904 | 34.45700 | 10447 ft | 287 kts | 115° |
| 2026-05-06 06:56 | 32.37119 | 34.47863 | 10232 ft | 285 kts | 115° |
| 2026-05-06 06:56 | 32.36342 | 34.50008 | 10019 ft | 283 kts | 115° |
| 2026-05-06 06:57 | 32.35567 | 34.52143 | 9790 ft | 281 kts | 115° |
| 2026-05-06 06:57 | 32.34798 | 34.54261 | 9553 ft | 279 kts | 115° |
| 2026-05-06 06:57 | 32.34033 | 34.56366 | 9315 ft | 277 kts | 115° |
| 2026-05-06 06:57 | 32.33286 | 34.58422 | 9091 ft | 274 kts | 115° |
| 2026-05-06 06:58 | 32.32537 | 34.60481 | 8855 ft | 270 kts | 115° |
| 2026-05-06 06:58 | 32.31797 | 34.62513 | 8656 ft | 267 kts | 115° |
| 2026-05-06 06:58 | 32.31068 | 34.64517 | 8451 ft | 264 kts | 115° |
| 2026-05-06 06:58 | 32.30345 | 34.66499 | 8234 ft | 260 kts | 115° |
| 2026-05-06 06:59 | 32.29633 | 34.68454 | 8035 ft | 257 kts | 115° |
| 2026-05-06 06:59 | 32.28927 | 34.70389 | 7826 ft | 254 kts | 115° |
| 2026-05-06 06:59 | 32.28233 | 34.72292 | 7635 ft | 251 kts | 115° |
| 2026-05-06 06:59 | 32.27554 | 34.74153 | 7437 ft | 248 kts | 115° |
| 2026-05-06 07:00 | 32.26876 | 34.76008 | 7244 ft | 245 kts | 115° |
| 2026-05-06 07:00 | 32.26204 | 34.77843 | 7037 ft | 242 kts | 115° |
| 2026-05-06 07:00 | 32.25540 | 34.79658 | 6848 ft | 239 kts | 114° |
| 2026-05-06 07:00 | 32.24975 | 34.81501 | 6653 ft | 237 kts | 109° |
| 2026-05-06 07:01 | 32.24502 | 34.83346 | 6483 ft | 231 kts | 108° |
| 2026-05-06 07:01 | 32.24053 | 34.85136 | 6288 ft | 228 kts | 108° |
| 2026-05-06 07:01 | 32.23603 | 34.86916 | 6073 ft | 225 kts | 108° |
| 2026-05-06 07:01 | 32.23154 | 34.88674 | 5881 ft | 221 kts | 108° |
| 2026-05-06 07:02 | 32.22717 | 34.90377 | 5673 ft | 212 kts | 108° |
| 2026-05-06 07:02 | 32.22292 | 34.92023 | 5451 ft | 207 kts | 109° |
| 2026-05-06 07:02 | 32.21875 | 34.93630 | 5242 ft | 201 kts | 109° |
| 2026-05-06 07:02 | 32.21467 | 34.95197 | 5032 ft | 198 kts | 108° |
| 2026-05-06 07:03 | 32.21067 | 34.96736 | 4820 ft | 195 kts | 109° |
| 2026-05-06 07:03 | 32.20673 | 34.98244 | 4624 ft | 194 kts | 109° |
| 2026-05-06 07:03 | 32.20230 | 34.99745 | 4392 ft | 193 kts | 121° |
| 2026-05-06 07:03 | 32.19458 | 35.01012 | 4210 ft | 188 kts | 130° |
| 2026-05-06 07:04 | 32.18673 | 35.02260 | 3996 ft | 189 kts | 129° |
| 2026-05-06 07:04 | 32.17900 | 35.03510 | 3804 ft | 188 kts | 129° |
| 2026-05-06 07:04 | 32.17135 | 35.04757 | 3581 ft | 186 kts | 128° |
| 2026-05-06 07:04 | 32.16371 | 35.06002 | 3464 ft | 190 kts | 129° |
| 2026-05-06 07:05 | 32.15594 | 35.07273 | 3445 ft | 190 kts | 129° |
| 2026-05-06 07:05 | 32.14842 | 35.08509 | 3429 ft | 185 kts | 128° |
| 2026-05-06 07:05 | 32.14094 | 35.09734 | 3419 ft | 183 kts | 128° |
| 2026-05-06 07:05 | 32.13367 | 35.10974 | 3409 ft | 184 kts | 129° |
| 2026-05-06 07:06 | 32.12604 | 35.12192 | 3427 ft | 187 kts | 133° |
| 2026-05-06 07:06 | 32.11626 | 35.13211 | 3417 ft | 187 kts | 146° |
| 2026-05-06 07:06 | 32.10607 | 35.14162 | 3410 ft | 185 kts | 146° |
| 2026-05-06 07:06 | 32.09612 | 35.15108 | 3428 ft | 182 kts | 146° |
| 2026-05-06 07:07 | 32.08539 | 35.15744 | 3414 ft | 165 kts | 178° |
| 2026-05-06 07:07 | 32.07422 | 35.15499 | 3404 ft | 166 kts | 214° |
| 2026-05-06 07:07 | 32.06638 | 35.14560 | 3426 ft | 160 kts | 231° |
| 2026-05-06 07:07 | 32.05926 | 35.13547 | 3416 ft | 156 kts | 233° |
| 2026-05-06 07:08 | 32.05516 | 35.12469 | 3443 ft | 139 kts | 256° |
| 2026-05-06 07:08 | 32.05265 | 35.11374 | 3435 ft | 135 kts | 255° |
| 2026-05-06 07:08 | 32.05042 | 35.10305 | 3392 ft | 130 kts | 258° |
| 2026-05-06 07:08 | 32.04856 | 35.09252 | 3421 ft | 135 kts | 259° |
| 2026-05-06 07:09 | 32.04674 | 35.08143 | 3304 ft | 141 kts | 259° |
| 2026-05-06 07:09 | 32.04491 | 35.06994 | 3117 ft | 139 kts | 259° |
| 2026-05-06 07:09 | 32.04319 | 35.05897 | 2895 ft | 131 kts | 260° |
| 2026-05-06 07:09 | 32.04154 | 35.04820 | 2760 ft | 140 kts | 259° |
| 2026-05-06 07:10 | 32.03980 | 35.03694 | 2550 ft | 142 kts | 259° |
| 2026-05-06 07:10 | 32.03809 | 35.02586 | 2386 ft | 136 kts | 259° |
| 2026-05-06 07:10 | 32.03643 | 35.01501 | 2202 ft | 134 kts | 259° |
| 2026-05-06 07:10 | 32.03479 | 35.00432 | 2036 ft | 133 kts | 259° |
| 2026-05-06 07:11 | 32.03314 | 34.99358 | 1858 ft | 133 kts | 259° |
| 2026-05-06 07:11 | 32.03150 | 34.98290 | 1667 ft | 132 kts | 259° |
| 2026-05-06 07:11 | 32.02988 | 34.97223 | 1517 ft | 135 kts | 257° |
| 2026-05-06 07:11 | 32.02812 | 34.96128 | 1282 ft | 136 kts | 257° |
| 2026-05-06 07:12 | 32.02675 | 34.95028 | 1098 ft | 135 kts | 259° |
| 2026-05-06 07:12 | 32.02522 | 34.93932 | 948 ft | 137 kts | 257° |
| 2026-05-06 07:12 | 32.02347 | 34.92831 | 791 ft | 136 kts | 257° |
| 2026-05-06 07:12 | 32.02165 | 34.91731 | 609 ft | 138 kts | 256° |
| 2026-05-06 07:13 | 32.01978 | 34.90622 | 363 ft | 136 kts | 256° |
| 2026-05-06 07:13 | 32.01823 | 34.89539 | 154 ft | 131 kts | 257° |
| 2026-05-06 07:13 | 32.01664 | 34.88553 | 118 ft | 107 kts | 258° |
| 2026-05-06 07:13 | 32.01557 | 34.87869 | 117 ft | 65 kts | 260° |
| 2026-05-06 07:14 | 32.01488 | 34.87432 | 114 ft | 36 kts | 259° |
| 2026-05-06 07:14 | 32.01423 | 34.87221 | 119 ft | 23 kts | 227° |
| 2026-05-06 07:14 | 32.01293 | 34.87118 | 117 ft | 22 kts | 211° |
| 2026-05-06 07:14 | 32.01171 | 34.87028 | 117 ft | 14 kts | 211° |
| 2026-05-06 07:15 | 32.01090 | 34.86976 | 115 ft | 13 kts | 195° |
| 2026-05-06 07:15 | 32.01020 | 34.87026 | 116 ft | 13 kts | 123° |
| 2026-05-06 07:15 | 32.00970 | 34.87110 | 117 ft | 12 kts | 146° |
| 2026-05-06 07:15 | 32.00892 | 34.87089 | 116 ft | 12 kts | 212° |
| 2026-05-06 07:16 | 32.00845 | 34.87043 | 118 ft | 4 kts | 259° |
| 2026-05-06 07:16 | 32.00855 | 34.87005 | 117 ft | 6 kts | 298° |
| 2026-05-06 07:16 | 32.00874 | 34.86969 | 118 ft | 0 kts | 302° |
| 2026-05-06 07:16 | 32.00874 | 34.86968 | 117 ft | 0 kts | 302° |